createdAt,value
2023-04-16T00:02:40.410Z,4.43
2023-04-16T00:07:43.368Z,1.90
2023-04-16T00:12:46.264Z,3.92
2023-04-16T00:17:49.266Z,3.20
2023-04-16T00:22:52.531Z,4.30
2023-04-16T00:27:55.444Z,2.78
2023-04-16T00:32:58.438Z,4.95
2023-04-16T00:38:01.445Z,2.88
2023-04-16T00:43:04.636Z,4.63
2023-04-16T00:48:28.371Z,5.03
2023-04-16T00:53:31.899Z,5.00
2023-04-16T00:58:35.984Z,4.30
2023-04-16T01:03:41.452Z,4.82
2023-04-16T01:08:45.168Z,3.78
2023-04-16T01:13:48.095Z,4.07
2023-04-16T01:18:51.218Z,1.85
2023-04-16T01:23:54.627Z,5.00
2023-04-16T01:28:57.603Z,4.45
2023-04-16T01:34:00.615Z,4.20
2023-04-16T01:39:04.570Z,4.90
2023-04-16T01:44:07.488Z,3.65
2023-04-16T01:49:10.872Z,4.75
2023-04-16T01:54:14.036Z,5.10
2023-04-16T01:59:16.851Z,4.68
2023-04-16T02:04:19.778Z,4.93
2023-04-16T02:09:22.720Z,4.63
2023-04-16T02:14:26.096Z,4.13
2023-04-16T02:19:29.251Z,4.25
2023-04-16T02:24:32.488Z,4.32
2023-04-16T02:29:38.890Z,4.30
2023-04-16T02:34:48.836Z,6.43
2023-04-16T02:39:53.485Z,6.38
2023-04-16T02:44:56.508Z,4.70
2023-04-16T02:49:59.424Z,4.78
2023-04-16T02:55:02.417Z,4.57
2023-04-16T03:00:07.083Z,4.68
2023-04-16T03:05:11.965Z,3.90
2023-04-16T03:10:14.863Z,5.50
2023-04-16T03:15:17.979Z,7.93
2023-04-16T03:20:21.259Z,10.10
2023-04-16T03:25:24.536Z,10.23
2023-04-16T03:30:27.940Z,11.95
2023-04-16T03:35:31.067Z,9.80
2023-04-16T03:40:33.996Z,7.03
2023-04-16T03:45:37.467Z,9.45
2023-04-16T03:50:40.669Z,7.70
2023-04-16T03:55:46.430Z,8.93
2023-04-16T04:00:49.463Z,6.43
2023-04-16T04:05:53.683Z,7.20
2023-04-16T04:11:03.802Z,7.80
2023-04-16T04:16:08.282Z,6.15
2023-04-16T04:21:11.758Z,6.97
2023-04-16T04:26:15.323Z,7.28
2023-04-16T04:31:18.495Z,6.75
2023-04-16T04:36:21.667Z,7.25
2023-04-16T04:41:27.247Z,6.43
2023-04-16T04:46:30.286Z,6.15
2023-04-16T04:51:33.875Z,6.03
2023-04-16T04:56:37.550Z,4.70
2023-04-16T05:01:40.947Z,3.97
2023-04-16T05:06:44.349Z,4.22
2023-04-16T05:11:47.250Z,3.45
2023-04-16T05:16:50.199Z,4.25
2023-04-16T05:21:53.266Z,4.15
2023-04-16T05:26:57.586Z,3.72
2023-04-16T05:32:00.736Z,3.75
2023-04-16T05:37:03.704Z,3.20
2023-04-16T05:42:06.599Z,4.30
2023-04-16T05:47:09.719Z,2.75
2023-04-16T05:52:12.782Z,2.35
2023-04-16T05:57:15.667Z,1.63
2023-04-16T06:02:18.815Z,1.75
2023-04-16T06:07:21.833Z,1.55
2023-04-16T06:12:24.894Z,1.70
2023-04-16T06:17:27.919Z,1.65
2023-04-16T06:22:30.956Z,1.40
2023-04-16T06:27:34.248Z,1.38
2023-04-16T06:32:37.100Z,1.38
2023-04-16T06:37:40.009Z,1.45
2023-04-16T06:42:44.881Z,1.40
2023-04-16T06:47:48.708Z,1.60
2023-04-16T06:52:51.627Z,1.40
2023-04-16T06:57:54.595Z,1.30
2023-04-16T07:02:58.750Z,1.20
2023-04-16T07:08:01.627Z,1.40
2023-04-16T07:13:04.546Z,1.17
2023-04-16T07:18:07.500Z,0.95
2023-04-16T07:23:10.567Z,1.58
2023-04-16T07:28:16.764Z,1.50
2023-04-16T07:33:19.680Z,1.40
2023-04-16T07:38:22.584Z,1.40
2023-04-16T07:43:25.418Z,1.83
2023-04-16T07:48:28.515Z,1.73
2023-04-16T07:53:31.514Z,1.30
2023-04-16T07:58:34.608Z,1.60
2023-04-16T08:03:37.861Z,1.20
2023-04-16T08:08:41.037Z,1.50
2023-04-16T08:13:44.007Z,1.52
2023-04-16T08:18:46.824Z,1.40
2023-04-16T08:23:49.714Z,1.40
2023-04-16T08:28:53.011Z,1.30
2023-04-16T08:33:55.938Z,1.52
2023-04-16T08:38:58.879Z,1.48
2023-04-16T08:44:25.982Z,1.85
2023-04-16T08:49:29.052Z,1.50
2023-04-16T08:54:56.570Z,1.55
2023-04-16T09:00:19.674Z,2.00
2023-04-16T09:05:25.967Z,1.40
2023-04-16T09:10:28.983Z,1.63
2023-04-16T09:15:35.212Z,1.33
2023-04-16T09:20:39.347Z,1.90
2023-04-16T09:25:42.522Z,2.10
2023-04-16T09:30:45.837Z,1.73
2023-04-16T09:35:50.778Z,1.60
2023-04-16T09:41:07.926Z,2.00
2023-04-16T09:46:13.151Z,2.00
2023-04-16T09:51:38.346Z,1.80
2023-04-16T09:56:46.376Z,1.73
2023-04-16T10:01:50.821Z,1.90
2023-04-16T10:07:05.201Z,1.73
2023-04-16T10:12:08.900Z,1.95
2023-04-16T10:17:12.071Z,1.75
2023-04-16T10:22:15.616Z,1.98
2023-04-16T10:27:19.666Z,1.90
2023-04-16T10:32:42.703Z,1.83
2023-04-16T10:37:45.717Z,2.00
2023-04-16T10:42:56.385Z,2.25
2023-04-16T10:47:59.509Z,2.10
2023-04-16T10:53:23.347Z,1.92
2023-04-16T10:58:36.420Z,1.40
2023-04-16T11:03:49.471Z,1.90
2023-04-16T11:08:54.889Z,2.08
2023-04-16T11:13:58.441Z,2.60
2023-04-16T11:19:01.650Z,2.00
2023-04-16T11:24:04.661Z,1.90
2023-04-16T11:29:16.043Z,1.77
2023-04-16T11:34:20.322Z,1.55
2023-04-16T11:39:23.913Z,1.73
2023-04-16T11:44:28.208Z,2.00
2023-04-16T11:49:31.326Z,2.17
2023-04-16T11:54:36.673Z,2.05
2023-04-16T12:00:01.337Z,2.00
2023-04-16T12:05:35.167Z,1.90
2023-04-16T12:11:07.577Z,1.90
2023-04-16T12:16:19.670Z,1.95
2023-04-16T12:21:22.673Z,2.33
2023-04-16T12:26:25.680Z,2.10
2023-04-16T12:31:38.450Z,2.10
2023-04-16T12:36:43.173Z,1.90
2023-04-16T12:41:46.164Z,1.77
2023-04-16T12:46:49.150Z,1.90
2023-04-16T12:51:53.092Z,2.15
2023-04-16T12:56:55.958Z,1.83
2023-04-16T13:02:01.158Z,2.40
2023-04-16T13:07:04.160Z,2.03
2023-04-16T13:12:07.502Z,2.20
2023-04-16T13:17:10.418Z,2.00
2023-04-16T13:22:13.559Z,1.80
2023-04-16T13:27:17.113Z,2.05
2023-04-16T13:32:20.142Z,1.88
2023-04-16T13:37:23.485Z,2.10
2023-04-16T13:42:26.553Z,1.92
2023-04-16T13:47:29.663Z,2.20
2023-04-16T13:52:32.521Z,2.30
2023-04-16T13:57:35.431Z,2.47
2023-04-16T14:02:42.392Z,2.75
2023-04-16T14:07:46.518Z,2.03
2023-04-16T14:12:49.613Z,7.50
2023-04-16T14:17:52.716Z,2.40
2023-04-16T14:22:55.710Z,2.95
2023-04-16T14:28:01.714Z,3.13
2023-04-16T14:33:06.864Z,3.50
2023-04-16T14:38:10.093Z,2.67
2023-04-16T14:43:13.085Z,2.90
2023-04-16T14:48:16.176Z,3.40
2023-04-16T14:58:22.132Z,3.50
2023-04-16T15:08:28.346Z,2.65
2023-04-16T15:13:34.205Z,3.35
2023-04-16T15:18:37.314Z,3.10
2023-04-16T15:23:40.144Z,3.40
2023-04-16T15:28:42.927Z,3.78
2023-04-16T15:33:45.911Z,4.00
2023-04-16T15:38:49.005Z,4.30
2023-04-16T15:43:51.949Z,5.00
2023-04-16T15:48:54.873Z,4.43
2023-04-16T15:53:58.688Z,4.47
2023-04-16T15:59:01.664Z,3.70
2023-04-16T16:04:04.805Z,3.78
2023-04-16T16:09:08.524Z,4.15
2023-04-16T16:14:11.704Z,4.60
2023-04-16T16:19:14.942Z,4.13
2023-04-16T16:24:18.575Z,4.00
2023-04-16T16:29:21.643Z,5.18
2023-04-16T16:34:24.488Z,6.65
2023-04-16T16:39:27.777Z,8.02
2023-04-16T16:44:31.262Z,5.55
2023-04-16T16:54:36.812Z,3.33
2023-04-16T16:59:39.833Z,3.70
2023-04-16T17:04:42.996Z,4.18
2023-04-16T17:10:06.933Z,3.90
2023-04-16T17:15:10.405Z,3.33
2023-04-16T17:20:13.323Z,3.17
2023-04-16T17:25:16.278Z,3.55
2023-04-16T17:30:19.446Z,3.30
2023-04-16T17:35:22.280Z,3.10
2023-04-16T17:40:25.653Z,2.75
2023-04-16T17:45:28.620Z,3.28
2023-04-16T17:50:31.483Z,3.17
2023-04-16T17:55:34.509Z,3.83
2023-04-16T18:00:37.861Z,4.25
2023-04-16T18:05:43.941Z,4.65
2023-04-16T18:10:46.878Z,5.03
2023-04-16T18:15:50.031Z,5.78
2023-04-16T18:20:52.914Z,5.40
2023-04-16T18:25:55.944Z,6.05
2023-04-16T18:31:04.979Z,6.32
2023-04-16T18:36:08.455Z,5.65
2023-04-16T18:41:18.932Z,6.10
2023-04-16T18:46:22.121Z,6.22
2023-04-16T18:51:25.395Z,6.13
2023-04-16T18:56:46.715Z,5.55
2023-04-16T19:01:50.016Z,5.90
2023-04-16T19:06:53.032Z,5.57
2023-04-16T19:11:56.252Z,5.63
2023-04-16T19:16:59.267Z,5.40
2023-04-16T19:22:02.191Z,4.70
2023-04-16T19:27:05.033Z,4.75
2023-04-16T19:32:08.136Z,4.95
2023-04-16T19:37:11.470Z,5.60
2023-04-16T19:42:14.649Z,4.97
2023-04-16T19:47:17.810Z,4.22
2023-04-16T19:52:20.845Z,3.90
2023-04-16T19:57:23.750Z,4.43
2023-04-16T20:02:27.223Z,4.32
2023-04-16T20:07:30.988Z,4.97
2023-04-16T20:12:33.977Z,5.15
2023-04-16T20:17:36.992Z,4.50
2023-04-16T20:22:40.643Z,4.47
2023-04-16T20:27:43.591Z,3.50
2023-04-16T20:32:46.607Z,4.13
2023-04-16T20:37:49.605Z,4.20
2023-04-16T20:42:52.480Z,4.18
2023-04-16T20:47:55.928Z,4.00
2023-04-16T20:52:59.099Z,2.92
2023-04-16T20:58:01.963Z,4.00
2023-04-16T21:03:05.685Z,4.68
2023-04-16T21:08:08.693Z,4.35
2023-04-16T21:13:11.747Z,3.80
2023-04-16T21:18:14.942Z,4.05
2023-04-16T21:23:17.800Z,4.70
2023-04-16T21:28:20.695Z,3.75
2023-04-16T21:33:23.682Z,4.30
2023-04-16T21:38:26.677Z,3.75
2023-04-16T21:43:32.241Z,3.97
2023-04-16T21:48:35.295Z,4.00
2023-04-16T21:53:39.218Z,3.75
2023-04-16T21:58:42.120Z,3.60
2023-04-16T22:03:47.291Z,3.65
2023-04-16T22:08:50.370Z,4.05
2023-04-16T22:13:53.798Z,3.83
2023-04-16T22:19:15.084Z,3.58
2023-04-16T22:24:18.068Z,3.90
2023-04-16T22:29:21.034Z,3.75
2023-04-16T22:34:23.975Z,3.90
2023-04-16T22:39:28.764Z,4.45
2023-04-16T22:44:31.556Z,4.00
2023-04-16T22:49:34.471Z,3.50
2023-04-16T22:54:37.770Z,3.75
2023-04-16T22:59:40.862Z,3.60
2023-04-16T23:05:02.453Z,3.53
2023-04-16T23:10:08.822Z,3.60
2023-04-16T23:15:12.034Z,3.50
2023-04-16T23:20:15.361Z,3.80
2023-04-16T23:25:18.605Z,3.63
2023-04-16T23:30:21.555Z,3.50
2023-04-16T23:35:24.483Z,4.03
2023-04-16T23:40:27.452Z,4.53
2023-04-16T23:45:30.571Z,7.60
2023-04-16T23:50:33.461Z,9.73
2023-04-16T23:55:36.342Z,6.18
